createdAt,value
2024-04-15T00:00:48.708Z,11.10
2024-04-15T00:01:48.652Z,11.15
2024-04-15T00:02:48.731Z,11.18
2024-04-15T00:03:48.675Z,11.15
2024-04-15T00:04:48.615Z,11.15
2024-04-15T00:05:48.592Z,11.12
2024-04-15T00:06:48.594Z,11.11
2024-04-15T00:07:48.607Z,11.05
2024-04-15T00:09:38.313Z,11.05
2024-04-15T00:10:39.333Z,11.08
2024-04-15T00:11:39.330Z,11.04
2024-04-15T00:12:39.438Z,11.04
2024-04-15T00:13:39.348Z,11.07
2024-04-15T00:14:39.332Z,11.15
2024-04-15T00:15:39.338Z,10.99
2024-04-15T00:16:39.329Z,11.00
2024-04-15T00:17:39.289Z,11.10
2024-04-15T00:18:39.605Z,11.05
2024-04-15T00:19:39.260Z,11.12
2024-04-15T00:20:39.249Z,11.12
2024-04-15T00:21:40.216Z,11.11
2024-04-15T00:22:39.244Z,11.07
2024-04-15T00:23:39.248Z,11.10
2024-04-15T00:24:39.243Z,11.08
2024-04-15T00:25:39.236Z,11.12
2024-04-15T00:26:39.216Z,11.17
2024-04-15T00:27:39.258Z,11.10
2024-04-15T00:28:39.181Z,11.02
2024-04-15T00:29:39.187Z,11.07
2024-04-15T00:30:39.197Z,11.04
2024-04-15T00:31:39.200Z,11.08
2024-04-15T00:32:39.195Z,10.96
2024-04-15T00:33:39.217Z,11.05
2024-04-15T00:34:39.156Z,11.07
2024-04-15T00:35:39.130Z,10.99
2024-04-15T21:08:46.618Z,5.87
2024-04-15T21:09:46.599Z,5.76
2024-04-15T21:10:46.579Z,5.71
2024-04-15T21:11:47.674Z,5.75
2024-04-15T21:12:47.661Z,5.68
2024-04-15T21:13:47.649Z,5.66
2024-04-15T21:14:47.642Z,5.59
2024-04-15T21:15:47.632Z,5.50
2024-04-15T21:16:47.656Z,5.53
2024-04-15T21:17:48.683Z,5.51
2024-04-15T21:18:47.614Z,5.61
2024-04-15T21:19:47.599Z,5.41
2024-04-15T21:20:47.595Z,5.44
2024-04-15T21:21:47.615Z,5.36
2024-04-15T21:22:48.182Z,5.41
2024-04-15T21:23:47.570Z,5.35
2024-04-15T21:24:47.562Z,5.28
2024-04-15T21:25:47.576Z,5.28
2024-04-15T21:26:47.566Z,5.21
2024-04-15T21:27:49.198Z,5.26
2024-04-15T21:28:47.545Z,5.29
2024-04-15T21:29:47.525Z,5.25
2024-04-15T21:30:47.525Z,5.26
2024-04-15T21:31:47.506Z,5.20
2024-04-15T21:32:47.577Z,5.14
2024-04-15T21:33:47.514Z,5.12
2024-04-15T21:34:47.487Z,5.18
2024-04-15T21:35:47.475Z,5.08
2024-04-15T21:36:47.471Z,5.15
2024-04-15T21:37:47.472Z,5.05
2024-04-15T21:38:47.459Z,5.05
2024-04-15T21:39:47.458Z,5.04
2024-04-15T21:40:49.283Z,4.94
2024-04-15T21:41:47.444Z,4.97
2024-04-15T21:42:47.437Z,5.02
2024-04-15T21:43:47.463Z,4.96
2024-04-15T21:44:47.414Z,4.94
2024-04-15T21:45:47.403Z,4.93
2024-04-15T21:46:47.421Z,4.87
2024-04-15T21:47:47.438Z,4.96
2024-04-15T21:48:47.380Z,4.86
2024-04-15T21:49:47.376Z,4.94
2024-04-15T21:50:47.372Z,4.93
2024-04-15T21:51:47.371Z,4.89
2024-04-15T21:52:47.359Z,4.86
2024-04-15T21:53:47.351Z,4.94
2024-04-15T21:54:47.347Z,4.93
2024-04-15T21:55:47.326Z,4.96
2024-04-15T21:56:47.327Z,4.90
2024-04-15T21:57:47.328Z,4.96
2024-04-15T21:58:47.321Z,4.90
2024-04-15T21:59:47.313Z,4.92
2024-04-15T22:00:47.303Z,4.82
2024-04-15T22:01:47.406Z,4.78
2024-04-15T22:02:47.330Z,4.82
2024-04-15T22:03:47.495Z,4.86
2024-04-15T22:04:58.843Z,4.80
2024-04-15T22:05:49.299Z,4.80
2024-04-15T22:06:47.254Z,4.77
2024-04-15T22:07:47.255Z,4.70
2024-04-15T22:08:47.241Z,4.77
2024-04-15T22:09:47.224Z,4.68
2024-04-15T22:10:47.281Z,4.70
2024-04-15T22:11:47.232Z,4.73
2024-04-15T22:12:47.212Z,4.75
2024-04-15T22:13:47.219Z,4.78
2024-04-15T22:14:48.182Z,4.78
2024-04-15T22:15:47.185Z,4.93
2024-04-15T22:16:47.203Z,4.99
2024-04-15T22:17:47.182Z,4.99
2024-04-15T22:18:47.170Z,4.97
2024-04-15T22:19:47.145Z,5.14
2024-04-15T22:20:47.143Z,5.20
2024-04-15T22:21:47.124Z,5.28
2024-04-15T22:22:47.121Z,5.30
2024-04-15T22:23:47.766Z,5.28
2024-04-15T22:24:47.111Z,5.29
2024-04-15T22:25:47.092Z,5.44
2024-04-15T22:26:47.082Z,5.36
2024-04-15T22:27:47.078Z,5.47
2024-04-15T22:28:47.098Z,5.59
2024-04-15T22:29:47.069Z,5.51
2024-04-15T22:30:47.060Z,5.54
2024-04-15T22:31:47.048Z,5.66
2024-04-15T22:32:47.088Z,5.68
2024-04-15T22:33:47.136Z,5.72
2024-04-15T22:34:47.032Z,5.76
2024-04-15T22:35:47.026Z,5.72
2024-04-15T22:36:47.013Z,5.75
2024-04-15T22:37:47.022Z,5.83
2024-04-15T22:38:47.023Z,5.93
2024-04-15T22:39:47.017Z,5.84
2024-04-15T22:40:48.721Z,5.90
2024-04-15T22:41:46.990Z,5.99
2024-04-15T22:42:46.967Z,5.91
2024-04-15T22:43:46.951Z,5.97
2024-04-15T22:44:46.965Z,6.05
2024-04-15T22:45:46.935Z,5.99
2024-04-15T22:46:46.974Z,6.02
2024-04-15T22:47:46.971Z,6.09
2024-04-15T22:48:47.071Z,6.14
2024-04-15T22:49:46.948Z,6.02
2024-04-15T22:50:46.899Z,6.05
2024-04-15T22:51:46.898Z,6.05
2024-04-15T22:52:46.915Z,6.04
2024-04-15T22:53:46.893Z,6.12
2024-04-15T22:54:46.881Z,6.20
2024-04-15T22:55:47.874Z,6.14
2024-04-15T22:56:46.908Z,6.19
2024-04-15T22:57:46.852Z,6.19
2024-04-15T22:58:46.834Z,6.14
2024-04-15T22:59:46.827Z,6.27
2024-04-15T23:00:46.834Z,6.20
2024-04-15T23:01:46.909Z,6.20
2024-04-15T23:02:46.973Z,6.24
2024-04-15T23:03:46.819Z,6.28
2024-04-15T23:04:46.845Z,6.27
2024-04-15T23:05:46.794Z,6.28
2024-04-15T23:06:46.831Z,6.31
2024-04-15T23:07:46.774Z,6.36
2024-04-15T23:08:46.770Z,6.38
2024-04-15T23:09:46.774Z,6.31
2024-04-15T23:10:46.838Z,6.41
2024-04-15T23:11:46.762Z,6.44
2024-04-15T23:12:46.735Z,6.45
2024-04-15T23:13:46.726Z,6.46
2024-04-15T23:14:46.736Z,6.52
2024-04-15T23:15:46.719Z,6.49
2024-04-15T23:16:46.706Z,6.45
2024-04-15T23:17:46.747Z,6.48
2024-04-15T23:18:47.195Z,6.54
2024-04-15T23:19:46.681Z,6.49
2024-04-15T23:20:46.677Z,6.52
2024-04-15T23:21:47.416Z,6.52
2024-04-15T23:22:46.661Z,6.42
2024-04-15T23:23:46.857Z,6.45
2024-04-15T23:24:46.649Z,6.44
2024-04-15T23:25:46.630Z,6.45
2024-04-15T23:26:47.352Z,6.42
2024-04-15T23:27:46.695Z,6.42
2024-04-15T23:28:46.610Z,6.36
2024-04-15T23:29:46.616Z,6.31
2024-04-15T23:30:46.611Z,6.38
2024-04-15T23:31:46.638Z,6.35
2024-04-15T23:32:46.653Z,6.39
2024-04-15T23:33:46.637Z,6.38
2024-04-15T23:34:46.590Z,6.35
2024-04-15T23:35:46.563Z,6.38
2024-04-15T23:36:46.559Z,6.42
2024-04-15T23:37:46.553Z,6.33
2024-04-15T23:38:46.554Z,6.30
2024-04-15T23:39:46.528Z,6.30
2024-04-15T23:40:46.528Z,6.28
2024-04-15T23:41:46.527Z,6.24
2024-04-15T23:42:46.512Z,6.30
2024-04-15T23:43:46.500Z,6.20
2024-04-15T23:44:46.490Z,6.31
2024-04-15T23:45:46.478Z,6.12
2024-04-15T23:46:46.532Z,6.26
2024-04-15T23:47:46.499Z,6.17
2024-04-15T23:48:46.466Z,6.24
2024-04-15T23:49:46.484Z,6.17
2024-04-15T23:50:46.455Z,6.33
2024-04-15T23:51:46.436Z,6.22
2024-04-15T23:52:46.437Z,6.33
2024-04-15T23:53:46.415Z,6.22
2024-04-15T23:54:47.231Z,6.35
2024-04-15T23:55:46.405Z,6.24
2024-04-15T23:56:46.395Z,6.22
2024-04-15T23:57:46.396Z,6.19
2024-04-15T23:58:46.390Z,6.19
2024-04-15T23:59:46.375Z,6.14
